sensor_id;sensor_type;location;lat;lon;timestamp;P1;durP1;ratioP1;P2;durP2;ratioP2
13419;SDS011;6781;58.440;15.470;2022-09-12T00:17:36;7.32;;;3.08;;
13419;SDS011;6781;58.440;15.470;2022-09-12T00:20:04;5.35;;;3.30;;
13419;SDS011;6781;58.440;15.470;2022-09-12T00:22:33;3.03;;;2.83;;
13419;SDS011;6781;58.440;15.470;2022-09-12T00:25:01;2.90;;;2.70;;
13419;SDS011;6781;58.440;15.470;2022-09-12T00:27:30;3.35;;;3.15;;
13419;SDS011;6781;58.440;15.470;2022-09-12T00:29:59;4.50;;;3.15;;
13419;SDS011;6781;58.440;15.470;2022-09-12T00:32:26;3.35;;;3.00;;
13419;SDS011;6781;58.440;15.470;2022-09-12T00:34:53;3.38;;;3.17;;
13419;SDS011;6781;58.440;15.470;2022-09-12T00:37:20;3.80;;;3.50;;
13419;SDS011;6781;58.440;15.470;2022-09-12T00:39:47;4.05;;;3.55;;
13419;SDS011;6781;58.440;15.470;2022-09-12T00:42:17;3.92;;;3.47;;
13419;SDS011;6781;58.440;15.470;2022-09-12T00:44:48;3.42;;;3.20;;
13419;SDS011;6781;58.440;15.470;2022-09-12T00:47:21;6.05;;;3.55;;
13419;SDS011;6781;58.440;15.470;2022-09-12T00:49:54;4.10;;;3.70;;
13419;SDS011;6781;58.440;15.470;2022-09-12T00:52:31;4.00;;;3.33;;
13419;SDS011;6781;58.440;15.470;2022-09-12T00:55:04;4.22;;;3.88;;
13419;SDS011;6781;58.440;15.470;2022-09-12T00:57:46;4.25;;;3.90;;
13419;SDS011;6781;58.440;15.470;2022-09-12T01:00:19;4.50;;;3.92;;
13419;SDS011;6781;58.440;15.470;2022-09-12T01:03:08;4.57;;;4.15;;
13419;SDS011;6781;58.440;15.470;2022-09-12T01:05:42;5.50;;;4.03;;
13419;SDS011;6781;58.440;15.470;2022-09-12T01:08:16;4.20;;;3.80;;
13419;SDS011;6781;58.440;15.470;2022-09-12T01:10:44;4.25;;;3.72;;
13419;SDS011;6781;58.440;15.470;2022-09-12T01:13:25;4.00;;;3.65;;
13419;SDS011;6781;58.440;15.470;2022-09-12T01:16:07;4.88;;;3.33;;
13419;SDS011;6781;58.440;15.470;2022-09-12T01:18:59;3.80;;;3.38;;
13419;SDS011;6781;58.440;15.470;2022-09-12T01:21:54;3.95;;;3.10;;
13419;SDS011;6781;58.440;15.470;2022-09-12T01:24:51;4.57;;;3.50;;
13419;SDS011;6781;58.440;15.470;2022-09-12T01:27:36;4.85;;;3.50;;
13419;SDS011;6781;58.440;15.470;2022-09-12T01:33:33;4.13;;;3.72;;
13419;SDS011;6781;58.440;15.470;2022-09-12T01:36:10;4.70;;;4.18;;
13419;SDS011;6781;58.440;15.470;2022-09-12T01:38:53;4.85;;;4.05;;
13419;SDS011;6781;58.440;15.470;2022-09-12T01:41:26;4.55;;;4.10;;
13419;SDS011;6781;58.440;15.470;2022-09-12T01:44:00;5.50;;;4.35;;
13419;SDS011;6781;58.440;15.470;2022-09-12T01:46:37;4.55;;;4.13;;
13419;SDS011;6781;58.440;15.470;2022-09-12T01:49:12;4.40;;;3.95;;
13419;SDS011;6781;58.440;15.470;2022-09-12T01:51:44;4.22;;;3.88;;
13419;SDS011;6781;58.440;15.470;2022-09-12T01:54:22;5.25;;;4.70;;
13419;SDS011;6781;58.440;15.470;2022-09-12T01:56:54;6.25;;;5.65;;
13419;SDS011;6781;58.440;15.470;2022-09-12T01:59:27;6.97;;;6.28;;
13419;SDS011;6781;58.440;15.470;2022-09-12T02:07:22;6.22;;;5.68;;
13419;SDS011;6781;58.440;15.470;2022-09-12T02:10:19;6.82;;;6.07;;
13419;SDS011;6781;58.440;15.470;2022-09-12T02:13:03;6.95;;;5.70;;
13419;SDS011;6781;58.440;15.470;2022-09-12T02:15:53;6.10;;;5.45;;
13419;SDS011;6781;58.440;15.470;2022-09-12T02:25:02;9.27;;;4.80;;
13419;SDS011;6781;58.440;15.470;2022-09-12T02:27:47;6.07;;;4.85;;
13419;SDS011;6781;58.440;15.470;2022-09-12T02:30:34;5.30;;;4.80;;
13419;SDS011;6781;58.440;15.470;2022-09-12T02:33:37;6.45;;;4.60;;
13419;SDS011;6781;58.440;15.470;2022-09-12T02:36:17;6.40;;;4.40;;
13419;SDS011;6781;58.440;15.470;2022-09-12T02:38:52;4.65;;;4.25;;
13419;SDS011;6781;58.440;15.470;2022-09-12T02:41:34;4.50;;;4.05;;
13419;SDS011;6781;58.440;15.470;2022-09-12T02:44:02;4.28;;;3.88;;
13419;SDS011;6781;58.440;15.470;2022-09-12T02:46:32;5.97;;;3.65;;
13419;SDS011;6781;58.440;15.470;2022-09-12T02:49:06;4.13;;;3.83;;
13419;SDS011;6781;58.440;15.470;2022-09-12T02:51:34;4.05;;;3.70;;
13419;SDS011;6781;58.440;15.470;2022-09-12T02:54:01;3.85;;;3.55;;
13419;SDS011;6781;58.440;15.470;2022-09-12T02:56:30;4.95;;;3.40;;
13419;SDS011;6781;58.440;15.470;2022-09-12T02:58:58;3.73;;;3.43;;
13419;SDS011;6781;58.440;15.470;2022-09-12T03:01:32;3.92;;;3.63;;
13419;SDS011;6781;58.440;15.470;2022-09-12T03:04:23;4.25;;;3.65;;
13419;SDS011;6781;58.440;15.470;2022-09-12T03:07:11;3.75;;;3.42;;
13419;SDS011;6781;58.440;15.470;2022-09-12T03:09:51;3.97;;;3.50;;
13419;SDS011;6781;58.440;15.470;2022-09-12T03:12:38;3.67;;;3.38;;
13419;SDS011;6781;58.440;15.470;2022-09-12T03:15:16;4.70;;;3.70;;
13419;SDS011;6781;58.440;15.470;2022-09-12T03:18:12;3.83;;;3.25;;
13419;SDS011;6781;58.440;15.470;2022-09-12T03:23:59;6.33;;;3.30;;
13419;SDS011;6781;58.440;15.470;2022-09-12T03:26:49;3.50;;;3.20;;
13419;SDS011;6781;58.440;15.470;2022-09-12T03:29:20;6.93;;;3.65;;
13419;SDS011;6781;58.440;15.470;2022-09-12T03:31:51;4.43;;;3.72;;
13419;SDS011;6781;58.440;15.470;2022-09-12T03:34:37;4.00;;;3.70;;
13419;SDS011;6781;58.440;15.470;2022-09-12T03:37:20;4.00;;;3.70;;
13419;SDS011;6781;58.440;15.470;2022-09-12T03:39:48;3.57;;;3.27;;
13419;SDS011;6781;58.440;15.470;2022-09-12T03:42:17;5.72;;;3.63;;
13419;SDS011;6781;58.440;15.470;2022-09-12T03:44:45;4.60;;;3.92;;
13419;SDS011;6781;58.440;15.470;2022-09-12T03:47:13;6.82;;;4.00;;
13419;SDS011;6781;58.440;15.470;2022-09-12T03:49:43;4.10;;;3.67;;
13419;SDS011;6781;58.440;15.470;2022-09-12T03:52:11;4.47;;;3.58;;
13419;SDS011;6781;58.440;15.470;2022-09-12T03:54:49;4.93;;;3.75;;
13419;SDS011;6781;58.440;15.470;2022-09-12T03:57:23;4.13;;;3.73;;
13419;SDS011;6781;58.440;15.470;2022-09-12T03:59:51;3.53;;;3.22;;
13419;SDS011;6781;58.440;15.470;2022-09-12T04:02:20;4.00;;;3.67;;
13419;SDS011;6781;58.440;15.470;2022-09-12T04:04:47;4.68;;;3.83;;
13419;SDS011;6781;58.440;15.470;2022-09-12T04:07:20;7.15;;;4.60;;
13419;SDS011;6781;58.440;15.470;2022-09-12T04:12:52;4.47;;;4.07;;
13419;SDS011;6781;58.440;15.470;2022-09-12T04:15:21;4.80;;;3.65;;
13419;SDS011;6781;58.440;15.470;2022-09-12T04:17:52;6.03;;;3.67;;
13419;SDS011;6781;58.440;15.470;2022-09-12T04:20:21;4.47;;;4.05;;
13419;SDS011;6781;58.440;15.470;2022-09-12T04:23:03;4.30;;;3.90;;
13419;SDS011;6781;58.440;15.470;2022-09-12T04:25:51;4.00;;;3.60;;
13419;SDS011;6781;58.440;15.470;2022-09-12T04:31:48;7.43;;;3.65;;
13419;SDS011;6781;58.440;15.470;2022-09-12T04:34:15;4.57;;;4.15;;
13419;SDS011;6781;58.440;15.470;2022-09-12T04:36:58;4.20;;;3.85;;
13419;SDS011;6781;58.440;15.470;2022-09-12T04:39:30;4.28;;;3.75;;
13419;SDS011;6781;58.440;15.470;2022-09-12T04:41:58;3.90;;;3.50;;
13419;SDS011;6781;58.440;15.470;2022-09-12T04:44:29;5.15;;;3.95;;
13419;SDS011;6781;58.440;15.470;2022-09-12T04:47:03;4.45;;;3.80;;
13419;SDS011;6781;58.440;15.470;2022-09-12T04:49:36;6.10;;;3.95;;
13419;SDS011;6781;58.440;15.470;2022-09-12T04:52:48;5.00;;;3.65;;
13419;SDS011;6781;58.440;15.470;2022-09-12T04:55:34;4.35;;;3.95;;
13419;SDS011;6781;58.440;15.470;2022-09-12T04:58:11;8.25;;;3.80;;
13419;SDS011;6781;58.440;15.470;2022-09-12T05:01:28;8.68;;;4.35;;
13419;SDS011;6781;58.440;15.470;2022-09-12T05:04:32;4.28;;;3.88;;
13419;SDS011;6781;58.440;15.470;2022-09-12T05:07:13;8.60;;;4.60;;
13419;SDS011;6781;58.440;15.470;2022-09-12T05:20:07;5.97;;;3.83;;
13419;SDS011;6781;58.440;15.470;2022-09-12T05:22:49;4.50;;;4.13;;
13419;SDS011;6781;58.440;15.470;2022-09-12T05:31:26;5.05;;;4.57;;
13419;SDS011;6781;58.440;15.470;2022-09-12T05:40:30;5.40;;;4.90;;
13419;SDS011;6781;58.440;15.470;2022-09-12T05:45:28;6.00;;;4.88;;
13419;SDS011;6781;58.440;15.470;2022-09-12T05:54:18;6.32;;;5.45;;
13419;SDS011;6781;58.440;15.470;2022-09-12T06:45:08;6.93;;;6.20;;
13419;SDS011;6781;58.440;15.470;2022-09-12T06:47:52;7.25;;;6.55;;
13419;SDS011;6781;58.440;15.470;2022-09-12T06:50:39;7.60;;;6.45;;
13419;SDS011;6781;58.440;15.470;2022-09-12T06:53:40;7.07;;;6.35;;
13419;SDS011;6781;58.440;15.470;2022-09-12T06:56:30;7.63;;;6.82;;
13419;SDS011;6781;58.440;15.470;2022-09-12T06:59:20;6.38;;;5.82;;
13419;SDS011;6781;58.440;15.470;2022-09-12T07:34:19;9.80;;;5.90;;
13419;SDS011;6781;58.440;15.470;2022-09-12T07:37:03;6.90;;;6.30;;
13419;SDS011;6781;58.440;15.470;2022-09-12T07:39:46;7.18;;;5.93;;
13419;SDS011;6781;58.440;15.470;2022-09-12T07:42:29;6.68;;;5.45;;
13419;SDS011;6781;58.440;15.470;2022-09-12T07:45:14;6.43;;;5.82;;
13419;SDS011;6781;58.440;15.470;2022-09-12T07:54:40;5.55;;;4.72;;
13419;SDS011;6781;58.440;15.470;2022-09-12T07:57:28;5.38;;;4.93;;
13419;SDS011;6781;58.440;15.470;2022-09-12T08:00:38;5.95;;;5.00;;
13419;SDS011;6781;58.440;15.470;2022-09-12T08:03:25;6.45;;;4.82;;
13419;SDS011;6781;58.440;15.470;2022-09-12T08:06:15;6.95;;;6.00;;
13419;SDS011;6781;58.440;15.470;2022-09-12T08:18:26;5.63;;;5.13;;
13419;SDS011;6781;58.440;15.470;2022-09-12T08:20:56;8.32;;;5.90;;
13419;SDS011;6781;58.440;15.470;2022-09-12T08:23:42;6.15;;;5.55;;
13419;SDS011;6781;58.440;15.470;2022-09-12T08:26:24;6.90;;;6.30;;
13419;SDS011;6781;58.440;15.470;2022-09-12T08:29:05;7.22;;;6.13;;
13419;SDS011;6781;58.440;15.470;2022-09-12T08:31:46;6.65;;;5.78;;
13419;SDS011;6781;58.440;15.470;2022-09-12T09:31:56;3.25;;;2.95;;
13419;SDS011;6781;58.440;15.470;2022-09-12T09:34:39;4.18;;;3.03;;
13419;SDS011;6781;58.440;15.470;2022-09-12T09:37:22;3.47;;;3.17;;
13419;SDS011;6781;58.440;15.470;2022-09-12T09:40:10;4.28;;;3.17;;
13419;SDS011;6781;58.440;15.470;2022-09-12T09:42:58;3.90;;;2.70;;
13419;SDS011;6781;58.440;15.470;2022-09-12T09:45:49;3.05;;;2.75;;
13419;SDS011;6781;58.440;15.470;2022-09-12T09:48:35;2.15;;;2.05;;
13419;SDS011;6781;58.440;15.470;2022-09-12T09:51:20;2.88;;;2.15;;
13419;SDS011;6781;58.440;15.470;2022-09-12T09:54:10;4.47;;;2.20;;
13419;SDS011;6781;58.440;15.470;2022-09-12T09:56:57;3.70;;;2.35;;
13419;SDS011;6781;58.440;15.470;2022-09-12T09:59:38;2.33;;;2.13;;
13419;SDS011;6781;58.440;15.470;2022-09-12T10:05:06;3.13;;;2.10;;
13419;SDS011;6781;58.440;15.470;2022-09-12T10:07:48;2.95;;;1.80;;
13419;SDS011;6781;58.440;15.470;2022-09-12T10:10:29;2.40;;;2.20;;
13419;SDS011;6781;58.440;15.470;2022-09-12T10:13:20;3.97;;;2.30;;
13419;SDS011;6781;58.440;15.470;2022-09-12T10:15:54;3.38;;;2.17;;
13419;SDS011;6781;58.440;15.470;2022-09-12T10:18:34;2.35;;;2.13;;
13419;SDS011;6781;58.440;15.470;2022-09-12T10:21:17;3.30;;;1.80;;
13419;SDS011;6781;58.440;15.470;2022-09-12T10:23:50;2.38;;;1.95;;
13419;SDS011;6781;58.440;15.470;2022-09-12T10:26:26;2.42;;;2.20;;
13419;SDS011;6781;58.440;15.470;2022-09-12T10:29:02;2.00;;;1.90;;
13419;SDS011;6781;58.440;15.470;2022-09-12T10:31:35;2.78;;;2.10;;
13419;SDS011;6781;58.440;15.470;2022-09-12T10:34:20;3.47;;;2.00;;
13419;SDS011;6781;58.440;15.470;2022-09-12T10:36:52;2.30;;;2.10;;
13419;SDS011;6781;58.440;15.470;2022-09-12T10:39:26;2.78;;;1.88;;
13419;SDS011;6781;58.440;15.470;2022-09-12T10:42:02;2.97;;;1.95;;
13419;SDS011;6781;58.440;15.470;2022-09-12T10:44:36;4.38;;;1.90;;
13419;SDS011;6781;58.440;15.470;2022-09-12T10:47:21;3.95;;;2.00;;
13419;SDS011;6781;58.440;15.470;2022-09-12T10:49:52;3.50;;;2.15;;
13419;SDS011;6781;58.440;15.470;2022-09-12T10:52:20;2.95;;;1.75;;
13419;SDS011;6781;58.440;15.470;2022-09-12T10:54:49;3.63;;;1.70;;
13419;SDS011;6781;58.440;15.470;2022-09-12T10:57:26;2.60;;;1.75;;
13419;SDS011;6781;58.440;15.470;2022-09-12T11:00:07;1.90;;;1.80;;
13419;SDS011;6781;58.440;15.470;2022-09-12T11:02:50;1.95;;;1.80;;
13419;SDS011;6781;58.440;15.470;2022-09-12T11:05:46;2.58;;;1.73;;
13419;SDS011;6781;58.440;15.470;2022-09-12T11:11:23;1.90;;;1.80;;
13419;SDS011;6781;58.440;15.470;2022-09-12T11:14:09;2.33;;;2.00;;
13419;SDS011;6781;58.440;15.470;2022-09-12T11:16:51;1.98;;;1.80;;
13419;SDS011;6781;58.440;15.470;2022-09-12T11:19:37;2.15;;;2.00;;
13419;SDS011;6781;58.440;15.470;2022-09-12T11:22:26;2.45;;;1.73;;
13419;SDS011;6781;58.440;15.470;2022-09-12T11:25:11;4.25;;;1.83;;
13419;SDS011;6781;58.440;15.470;2022-09-12T11:27:53;1.95;;;1.80;;
13419;SDS011;6781;58.440;15.470;2022-09-12T11:30:38;1.50;;;1.40;;
13419;SDS011;6781;58.440;15.470;2022-09-12T11:33:19;1.80;;;1.70;;
13419;SDS011;6781;58.440;15.470;2022-09-12T11:36:00;1.90;;;1.80;;
13419;SDS011;6781;58.440;15.470;2022-09-12T11:38:44;4.50;;;2.05;;
13419;SDS011;6781;58.440;15.470;2022-09-12T11:41:20;1.73;;;1.63;;
13419;SDS011;6781;58.440;15.470;2022-09-12T11:44:02;1.80;;;1.50;;
13419;SDS011;6781;58.440;15.470;2022-09-12T11:46:37;3.17;;;1.70;;
13419;SDS011;6781;58.440;15.470;2022-09-12T11:49:22;1.80;;;1.70;;
13419;SDS011;6781;58.440;15.470;2022-09-12T11:52:06;3.42;;;1.52;;
13419;SDS011;6781;58.440;15.470;2022-09-12T11:55:18;4.38;;;2.10;;
13419;SDS011;6781;58.440;15.470;2022-09-12T11:58:01;1.70;;;1.55;;
13419;SDS011;6781;58.440;15.470;2022-09-12T12:00:42;2.08;;;1.88;;
13419;SDS011;6781;58.440;15.470;2022-09-12T12:03:14;1.90;;;1.80;;
13419;SDS011;6781;58.440;15.470;2022-09-12T12:05:50;2.88;;;1.95;;
13419;SDS011;6781;58.440;15.470;2022-09-12T12:08:21;2.83;;;1.27;;
13419;SDS011;6781;58.440;15.470;2022-09-12T12:10:53;1.67;;;1.58;;
13419;SDS011;6781;58.440;15.470;2022-09-12T12:13:25;4.25;;;1.80;;
13419;SDS011;6781;58.440;15.470;2022-09-12T12:16:01;1.50;;;1.40;;
13419;SDS011;6781;58.440;15.470;2022-09-12T12:18:40;1.88;;;1.70;;
13419;SDS011;6781;58.440;15.470;2022-09-12T12:21:33;1.73;;;1.48;;
13419;SDS011;6781;58.440;15.470;2022-09-12T12:24:24;4.32;;;2.00;;
13419;SDS011;6781;58.440;15.470;2022-09-12T12:26:57;1.83;;;1.73;;
13419;SDS011;6781;58.440;15.470;2022-09-12T12:29:36;3.20;;;1.92;;
13419;SDS011;6781;58.440;15.470;2022-09-12T12:38:25;2.55;;;1.88;;
13419;SDS011;6781;58.440;15.470;2022-09-12T12:40:58;2.53;;;1.33;;
13419;SDS011;6781;58.440;15.470;2022-09-12T12:47:10;1.40;;;1.30;;
13419;SDS011;6781;58.440;15.470;2022-09-12T12:49:49;1.42;;;1.30;;
13419;SDS011;6781;58.440;15.470;2022-09-12T12:52:29;1.85;;;1.20;;
13419;SDS011;6781;58.440;15.470;2022-09-12T12:55:00;1.25;;;1.15;;
13419;SDS011;6781;58.440;15.470;2022-09-12T12:57:31;1.35;;;1.10;;
13419;SDS011;6781;58.440;15.470;2022-09-12T13:00:27;1.48;;;1.25;;
13419;SDS011;6781;58.440;15.470;2022-09-12T13:03:04;2.40;;;1.40;;
13419;SDS011;6781;58.440;15.470;2022-09-12T13:05:40;2.08;;;1.50;;
13419;SDS011;6781;58.440;15.470;2022-09-12T13:08:24;1.60;;;1.25;;
13419;SDS011;6781;58.440;15.470;2022-09-12T13:11:10;1.38;;;1.30;;
13419;SDS011;6781;58.440;15.470;2022-09-12T13:13:44;1.90;;;1.30;;
13419;SDS011;6781;58.440;15.470;2022-09-12T13:16:27;1.38;;;1.10;;
13419;SDS011;6781;58.440;15.470;2022-09-12T13:18:58;1.35;;;1.25;;
13419;SDS011;6781;58.440;15.470;2022-09-12T13:21:29;2.00;;;1.35;;
13419;SDS011;6781;58.440;15.470;2022-09-12T13:24:12;5.53;;;1.70;;
13419;SDS011;6781;58.440;15.470;2022-09-12T13:26:43;3.58;;;1.40;;
13419;SDS011;6781;58.440;15.470;2022-09-12T13:29:14;1.38;;;1.27;;
13419;SDS011;6781;58.440;15.470;2022-09-12T13:31:54;1.67;;;1.58;;
13419;SDS011;6781;58.440;15.470;2022-09-12T13:40:45;1.60;;;1.48;;
13419;SDS011;6781;58.440;15.470;2022-09-12T13:43:34;2.17;;;1.55;;
13419;SDS011;6781;58.440;15.470;2022-09-12T13:46:06;1.60;;;1.50;;
13419;SDS011;6781;58.440;15.470;2022-09-12T13:48:43;1.77;;;1.67;;
13419;SDS011;6781;58.440;15.470;2022-09-12T13:51:20;2.03;;;1.52;;
13419;SDS011;6781;58.440;15.470;2022-09-12T13:53:55;2.08;;;1.65;;
13419;SDS011;6781;58.440;15.470;2022-09-12T13:56:30;2.15;;;1.52;;
13419;SDS011;6781;58.440;15.470;2022-09-12T13:59:11;2.97;;;1.90;;
13419;SDS011;6781;58.440;15.470;2022-09-12T14:01:52;3.63;;;1.75;;
13419;SDS011;6781;58.440;15.470;2022-09-12T14:04:21;1.70;;;1.60;;
13419;SDS011;6781;58.440;15.470;2022-09-12T14:07:10;4.03;;;1.60;;
13419;SDS011;6781;58.440;15.470;2022-09-12T14:09:42;1.70;;;1.40;;
13419;SDS011;6781;58.440;15.470;2022-09-12T14:15:14;4.15;;;1.60;;
13419;SDS011;6781;58.440;15.470;2022-09-12T14:17:47;2.38;;;1.55;;
13419;SDS011;6781;58.440;15.470;2022-09-12T14:20:18;3.35;;;1.42;;
13419;SDS011;6781;58.440;15.470;2022-09-12T14:22:47;1.20;;;1.20;;
13419;SDS011;6781;58.440;15.470;2022-09-12T14:25:17;3.78;;;1.60;;
13419;SDS011;6781;58.440;15.470;2022-09-12T14:27:50;1.85;;;1.50;;
13419;SDS011;6781;58.440;15.470;2022-09-12T14:30:21;2.10;;;1.50;;
13419;SDS011;6781;58.440;15.470;2022-09-12T14:35:46;1.77;;;1.63;;
13419;SDS011;6781;58.440;15.470;2022-09-12T14:38:21;2.63;;;1.38;;
13419;SDS011;6781;58.440;15.470;2022-09-12T14:40:51;1.38;;;1.27;;
13419;SDS011;6781;58.440;15.470;2022-09-12T14:43:37;2.17;;;1.48;;
13419;SDS011;6781;58.440;15.470;2022-09-12T14:46:13;2.97;;;1.42;;
13419;SDS011;6781;58.440;15.470;2022-09-12T14:48:45;2.75;;;1.55;;
13419;SDS011;6781;58.440;15.470;2022-09-12T14:51:20;2.03;;;1.38;;
13419;SDS011;6781;58.440;15.470;2022-09-12T14:53:53;2.65;;;1.65;;
13419;SDS011;6781;58.440;15.470;2022-09-12T14:56:21;2.10;;;1.08;;
13419;SDS011;6781;58.440;15.470;2022-09-12T15:02:24;1.67;;;1.45;;
13419;SDS011;6781;58.440;15.470;2022-09-12T15:04:53;2.85;;;1.30;;
13419;SDS011;6781;58.440;15.470;2022-09-12T15:07:40;3.42;;;1.42;;
13419;SDS011;6781;58.440;15.470;2022-09-12T15:10:13;1.60;;;1.50;;
13419;SDS011;6781;58.440;15.470;2022-09-12T15:12:48;2.08;;;1.40;;
13419;SDS011;6781;58.440;15.470;2022-09-12T15:15:30;1.92;;;1.40;;
13419;SDS011;6781;58.440;15.470;2022-09-12T15:21:40;1.48;;;1.35;;
13419;SDS011;6781;58.440;15.470;2022-09-12T15:46:36;2.03;;;1.60;;
13419;SDS011;6781;58.440;15.470;2022-09-12T15:49:17;2.85;;;1.60;;
13419;SDS011;6781;58.440;15.470;2022-09-12T15:51:53;2.83;;;1.60;;
13419;SDS011;6781;58.440;15.470;2022-09-12T15:54:23;1.70;;;1.40;;
13419;SDS011;6781;58.440;15.470;2022-09-12T15:57:05;2.25;;;1.90;;
13419;SDS011;6781;58.440;15.470;2022-09-12T15:59:51;3.80;;;1.60;;
13419;SDS011;6781;58.440;15.470;2022-09-12T16:14:46;1.70;;;1.60;;
13419;SDS011;6781;58.440;15.470;2022-09-12T16:17:17;3.00;;;1.67;;
13419;SDS011;6781;58.440;15.470;2022-09-12T16:20:02;1.92;;;1.80;;
13419;SDS011;6781;58.440;15.470;2022-09-12T16:22:52;2.88;;;2.03;;
13419;SDS011;6781;58.440;15.470;2022-09-12T16:25:37;1.98;;;1.80;;
13419;SDS011;6781;58.440;15.470;2022-09-12T16:41:12;2.63;;;2.00;;
13419;SDS011;6781;58.440;15.470;2022-09-12T16:43:53;2.83;;;2.40;;
13419;SDS011;6781;58.440;15.470;2022-09-12T16:46:28;2.30;;;2.00;;
13419;SDS011;6781;58.440;15.470;2022-09-12T16:49:09;3.05;;;2.00;;
13419;SDS011;6781;58.440;15.470;2022-09-12T16:51:52;1.80;;;1.70;;
13419;SDS011;6781;58.440;15.470;2022-09-12T16:54:34;2.63;;;1.83;;
13419;SDS011;6781;58.440;15.470;2022-09-12T17:00:00;2.58;;;2.00;;
13419;SDS011;6781;58.440;15.470;2022-09-12T17:02:42;2.70;;;1.95;;
13419;SDS011;6781;58.440;15.470;2022-09-12T17:05:22;1.75;;;1.65;;
13419;SDS011;6781;58.440;15.470;2022-09-12T17:07:51;1.98;;;1.83;;
13419;SDS011;6781;58.440;15.470;2022-09-12T17:10:21;1.70;;;1.60;;
13419;SDS011;6781;58.440;15.470;2022-09-12T17:12:51;3.17;;;2.00;;
13419;SDS011;6781;58.440;15.470;2022-09-12T17:15:19;4.43;;;2.15;;
13419;SDS011;6781;58.440;15.470;2022-09-12T17:17:47;2.58;;;2.38;;
13419;SDS011;6781;58.440;15.470;2022-09-12T17:20:16;3.53;;;2.70;;
13419;SDS011;6781;58.440;15.470;2022-09-12T17:22:44;3.03;;;2.70;;
13419;SDS011;6781;58.440;15.470;2022-09-12T17:25:13;2.78;;;2.55;;
13419;SDS011;6781;58.440;15.470;2022-09-12T17:27:41;4.07;;;2.65;;
13419;SDS011;6781;58.440;15.470;2022-09-12T17:30:11;2.70;;;2.50;;
13419;SDS011;6781;58.440;15.470;2022-09-12T17:32:39;2.60;;;2.40;;
13419;SDS011;6781;58.440;15.470;2022-09-12T17:35:14;3.38;;;2.35;;
13419;SDS011;6781;58.440;15.470;2022-09-12T17:37:41;3.47;;;2.60;;
13419;SDS011;6781;58.440;15.470;2022-09-12T17:40:28;2.88;;;2.38;;
13419;SDS011;6781;58.440;15.470;2022-09-12T17:43:09;2.58;;;2.38;;
13419;SDS011;6781;58.440;15.470;2022-09-12T18:11:34;2.13;;;2.03;;
13419;SDS011;6781;58.440;15.470;2022-09-12T18:14:03;2.78;;;2.42;;
13419;SDS011;6781;58.440;15.470;2022-09-12T18:16:44;2.38;;;2.17;;
13419;SDS011;6781;58.440;15.470;2022-09-12T18:19:29;3.15;;;2.35;;
13419;SDS011;6781;58.440;15.470;2022-09-12T18:22:10;2.10;;;2.00;;
13419;SDS011;6781;58.440;15.470;2022-09-12T18:24:51;6.70;;;2.53;;
13419;SDS011;6781;58.440;15.470;2022-09-12T18:27:38;3.33;;;2.38;;
13419;SDS011;6781;58.440;15.470;2022-09-12T18:30:12;3.38;;;3.15;;
13419;SDS011;6781;58.440;15.470;2022-09-12T18:32:54;5.65;;;2.88;;
13419;SDS011;6781;58.440;15.470;2022-09-12T18:35:24;3.42;;;2.72;;
13419;SDS011;6781;58.440;15.470;2022-09-12T18:38:08;4.80;;;3.28;;
13419;SDS011;6781;58.440;15.470;2022-09-12T18:41:02;3.55;;;3.25;;
13419;SDS011;6781;58.440;15.470;2022-09-12T18:46:40;5.05;;;4.55;;
13419;SDS011;6781;58.440;15.470;2022-09-12T18:49:17;6.47;;;3.80;;
13419;SDS011;6781;58.440;15.470;2022-09-12T18:51:53;4.38;;;3.90;;
13419;SDS011;6781;58.440;15.470;2022-09-12T18:54:29;5.85;;;4.38;;
13419;SDS011;6781;58.440;15.470;2022-09-12T18:57:14;5.32;;;4.22;;
13419;SDS011;6781;58.440;15.470;2022-09-12T18:59:45;4.10;;;3.80;;
13419;SDS011;6781;58.440;15.470;2022-09-12T19:05:38;3.80;;;3.50;;
13419;SDS011;6781;58.440;15.470;2022-09-12T19:08:08;3.50;;;3.15;;
13419;SDS011;6781;58.440;15.470;2022-09-12T19:10:55;4.07;;;3.33;;
13419;SDS011;6781;58.440;15.470;2022-09-12T19:13:35;4.82;;;3.10;;
13419;SDS011;6781;58.440;15.470;2022-09-12T19:16:19;3.78;;;3.45;;
13419;SDS011;6781;58.440;15.470;2022-09-12T19:18:51;7.68;;;3.10;;
13419;SDS011;6781;58.440;15.470;2022-09-12T19:21:39;4.38;;;3.50;;
13419;SDS011;6781;58.440;15.470;2022-09-12T19:24:11;3.40;;;3.10;;
13419;SDS011;6781;58.440;15.470;2022-09-12T19:26:51;4.20;;;3.45;;
13419;SDS011;6781;58.440;15.470;2022-09-12T19:29:19;5.13;;;3.40;;
13419;SDS011;6781;58.440;15.470;2022-09-12T19:31:51;3.90;;;3.60;;
13419;SDS011;6781;58.440;15.470;2022-09-12T19:34:20;3.63;;;3.33;;
13419;SDS011;6781;58.440;15.470;2022-09-12T19:36:57;3.65;;;3.45;;
13419;SDS011;6781;58.440;15.470;2022-09-12T19:39:25;4.30;;;4.00;;
13419;SDS011;6781;58.440;15.470;2022-09-12T19:41:53;4.60;;;3.50;;
13419;SDS011;6781;58.440;15.470;2022-09-12T19:44:20;3.90;;;3.60;;
13419;SDS011;6781;58.440;15.470;2022-09-12T19:46:53;3.63;;;3.33;;
13419;SDS011;6781;58.440;15.470;2022-09-12T19:49:20;3.50;;;3.28;;
13419;SDS011;6781;58.440;15.470;2022-09-12T19:51:49;3.47;;;3.17;;
13419;SDS011;6781;58.440;15.470;2022-09-12T19:54:17;3.70;;;3.40;;
13419;SDS011;6781;58.440;15.470;2022-09-12T19:56:45;4.28;;;3.65;;
13419;SDS011;6781;58.440;15.470;2022-09-12T20:02:13;5.75;;;2.90;;
13419;SDS011;6781;58.440;15.470;2022-09-12T20:04:41;3.53;;;3.22;;
13419;SDS011;6781;58.440;15.470;2022-09-12T20:07:12;4.88;;;2.72;;
13419;SDS011;6781;58.440;15.470;2022-09-12T20:09:41;2.58;;;2.38;;
13419;SDS011;6781;58.440;15.470;2022-09-12T20:12:08;3.63;;;2.78;;
13419;SDS011;6781;58.440;15.470;2022-09-12T20:14:42;3.50;;;2.55;;
13419;SDS011;6781;58.440;15.470;2022-09-12T20:17:09;5.03;;;2.63;;
13419;SDS011;6781;58.440;15.470;2022-09-12T20:19:36;3.17;;;2.30;;
13419;SDS011;6781;58.440;15.470;2022-09-12T20:22:03;4.32;;;2.50;;
13419;SDS011;6781;58.440;15.470;2022-09-12T20:24:33;3.25;;;2.33;;
13419;SDS011;6781;58.440;15.470;2022-09-12T20:26:59;2.83;;;2.63;;
13419;SDS011;6781;58.440;15.470;2022-09-12T20:29:26;2.65;;;2.42;;
13419;SDS011;6781;58.440;15.470;2022-09-12T20:31:53;3.03;;;2.33;;
13419;SDS011;6781;58.440;15.470;2022-09-12T20:34:20;2.80;;;2.15;;
13419;SDS011;6781;58.440;15.470;2022-09-12T20:36:47;3.88;;;2.33;;
13419;SDS011;6781;58.440;15.470;2022-09-12T20:39:15;3.08;;;2.13;;
13419;SDS011;6781;58.440;15.470;2022-09-12T20:41:45;2.25;;;2.13;;
13419;SDS011;6781;58.440;15.470;2022-09-12T20:44:13;2.97;;;2.40;;
13419;SDS011;6781;58.440;15.470;2022-09-12T20:46:40;3.05;;;2.53;;
13419;SDS011;6781;58.440;15.470;2022-09-12T20:49:07;2.72;;;2.42;;
13419;SDS011;6781;58.440;15.470;2022-09-12T20:51:35;2.65;;;2.45;;
13419;SDS011;6781;58.440;15.470;2022-09-12T20:54:03;3.05;;;2.75;;
13419;SDS011;6781;58.440;15.470;2022-09-12T20:56:31;2.47;;;2.28;;
13419;SDS011;6781;58.440;15.470;2022-09-12T20:59:02;2.60;;;2.40;;
13419;SDS011;6781;58.440;15.470;2022-09-12T21:01:32;3.30;;;2.10;;
13419;SDS011;6781;58.440;15.470;2022-09-12T21:04:08;4.35;;;2.20;;
13419;SDS011;6781;58.440;15.470;2022-09-12T21:06:35;5.43;;;2.70;;
13419;SDS011;6781;58.440;15.470;2022-09-12T21:09:02;3.25;;;2.85;;
13419;SDS011;6781;58.440;15.470;2022-09-12T21:11:29;2.75;;;2.35;;
13419;SDS011;6781;58.440;15.470;2022-09-12T21:13:56;6.55;;;2.55;;
13419;SDS011;6781;58.440;15.470;2022-09-12T21:16:25;4.68;;;2.47;;
13419;SDS011;6781;58.440;15.470;2022-09-12T21:18:54;5.40;;;2.60;;
13419;SDS011;6781;58.440;15.470;2022-09-12T21:21:23;3.20;;;2.47;;
13419;SDS011;6781;58.440;15.470;2022-09-12T21:23:56;3.90;;;2.25;;
13419;SDS011;6781;58.440;15.470;2022-09-12T21:26:26;2.63;;;2.42;;
13419;SDS011;6781;58.440;15.470;2022-09-12T21:28:54;5.38;;;2.90;;
13419;SDS011;6781;58.440;15.470;2022-09-12T21:31:21;2.63;;;2.40;;
13419;SDS011;6781;58.440;15.470;2022-09-12T21:33:50;3.25;;;2.58;;